sensor_id;sensor_type;location;lat;lon;timestamp;pressure;altitude;pressure_sealevel;temperature;humidity
65359;BME280;52491;45.900;6.346;2023-04-20T00:00:05;93305.72;;;23.83;29.16
65359;BME280;52491;45.900;6.346;2023-04-20T00:02:37;93307.88;;;23.81;29.13
65359;BME280;52491;45.900;6.346;2023-04-20T00:05:06;93310.56;;;23.81;28.97
65359;BME280;52491;45.900;6.346;2023-04-20T00:07:32;93313.22;;;23.81;29.08
65359;BME280;52491;45.900;6.346;2023-04-20T00:09:58;93307.88;;;23.81;28.94
65359;BME280;52491;45.900;6.346;2023-04-20T00:12:24;93306.81;;;23.82;29.04
65359;BME280;52491;45.900;6.346;2023-04-20T00:14:50;93302.56;;;23.81;29.04
65359;BME280;52491;45.900;6.346;2023-04-20T00:17:16;93291.13;;;23.81;29.07
65359;BME280;52491;45.900;6.346;2023-04-20T00:19:42;93291.13;;;23.81;29.07
65359;BME280;52491;45.900;6.346;2023-04-20T00:22:07;93286.06;;;23.79;29.01
65359;BME280;52491;45.900;6.346;2023-04-20T00:24:33;93289.50;;;23.80;28.92
65359;BME280;52491;45.900;6.346;2023-04-20T00:26:58;93286.84;;;23.80;28.90
65359;BME280;52491;45.900;6.346;2023-04-20T00:29:24;93291.66;;;23.78;29.00
65359;BME280;52491;45.900;6.346;2023-04-20T00:31:50;93279.16;;;23.78;28.79
65359;BME280;52491;45.900;6.346;2023-04-20T00:34:16;93276.75;;;23.77;29.00
65359;BME280;52491;45.900;6.346;2023-04-20T00:36:41;93269.56;;;23.77;29.06
65359;BME280;52491;45.900;6.346;2023-04-20T00:39:07;93270.63;;;23.76;29.07
65359;BME280;52491;45.900;6.346;2023-04-20T00:41:33;93264.53;;;23.76;29.02
65359;BME280;52491;45.900;6.346;2023-04-20T00:43:58;93256.53;;;23.76;28.90
65359;BME280;52491;45.900;6.346;2023-04-20T00:46:24;93258.91;;;23.77;28.92
65359;BME280;52491;45.900;6.346;2023-04-20T00:48:50;93260.00;;;23.76;28.90
65359;BME280;52491;45.900;6.346;2023-04-20T00:51:20;93251.22;;;23.76;28.84
65359;BME280;52491;45.900;6.346;2023-04-20T00:53:46;93252.81;;;23.77;28.68
65359;BME280;52491;45.900;6.346;2023-04-20T00:56:13;93246.69;;;23.76;28.67
65359;BME280;52491;45.900;6.346;2023-04-20T00:58:40;93245.09;;;23.75;28.97
65359;BME280;52491;45.900;6.346;2023-04-20T01:01:06;93245.91;;;23.76;28.71
65359;BME280;52491;45.900;6.346;2023-04-20T01:03:33;93239.78;;;23.75;28.76
65359;BME280;52491;45.900;6.346;2023-04-20T01:05:59;93236.03;;;23.76;28.74
65359;BME280;52491;45.900;6.346;2023-04-20T01:08:26;93226.47;;;23.75;28.86
65359;BME280;52491;45.900;6.346;2023-04-20T01:10:53;93229.94;;;23.76;28.58
65359;BME280;52491;45.900;6.346;2023-04-20T01:13:19;93219.53;;;23.74;28.97
65359;BME280;52491;45.900;6.346;2023-04-20T01:15:45;93222.19;;;23.74;28.64
65359;BME280;52491;45.900;6.346;2023-04-20T01:18:10;93217.97;;;23.73;28.83
65359;BME280;52491;45.900;6.346;2023-04-20T01:20:36;93217.97;;;23.73;28.70
65359;BME280;52491;45.900;6.346;2023-04-20T01:23:02;93210.75;;;23.74;28.74
65359;BME280;52491;45.900;6.346;2023-04-20T01:25:27;93214.50;;;23.73;28.59
65359;BME280;52491;45.900;6.346;2023-04-20T01:27:53;93203.88;;;23.73;28.68
65359;BME280;52491;45.900;6.346;2023-04-20T01:30:19;93202.00;;;23.73;28.64
65359;BME280;52491;45.900;6.346;2023-04-20T01:32:44;93194.00;;;23.73;28.80
65359;BME280;52491;45.900;6.346;2023-04-20T01:35:10;93199.34;;;23.73;28.64
65359;BME280;52491;45.900;6.346;2023-04-20T01:37:37;93189.47;;;23.74;28.81
65359;BME280;52491;45.900;6.346;2023-04-20T01:40:03;93188.69;;;23.73;28.47
65359;BME280;52491;45.900;6.346;2023-04-20T01:42:30;93191.59;;;23.72;28.51
65359;BME280;52491;45.900;6.346;2023-04-20T01:44:56;93183.63;;;23.72;28.53
65359;BME280;52491;45.900;6.346;2023-04-20T01:47:22;93181.75;;;23.72;28.70
65359;BME280;52491;45.900;6.346;2023-04-20T01:49:48;93174.06;;;23.71;28.61
65359;BME280;52491;45.900;6.346;2023-04-20T01:52:13;93173.25;;;23.70;28.86
65359;BME280;52491;45.900;6.346;2023-04-20T01:54:39;93178.31;;;23.72;28.74
65359;BME280;52491;45.900;6.346;2023-04-20T01:57:05;93171.41;;;23.71;28.65
65359;BME280;52491;45.900;6.346;2023-04-20T01:59:30;93174.06;;;23.71;28.64
65359;BME280;52491;45.900;6.346;2023-04-20T02:01:56;93173.25;;;23.70;28.78
65359;BME280;52491;45.900;6.346;2023-04-20T02:04:22;93171.41;;;23.71;28.52
65359;BME280;52491;45.900;6.346;2023-04-20T02:06:48;93169.53;;;23.71;28.37
65359;BME280;52491;45.900;6.346;2023-04-20T02:09:13;93171.41;;;23.71;28.63
65359;BME280;52491;45.900;6.346;2023-04-20T02:11:39;93167.13;;;23.70;28.49
65359;BME280;52491;45.900;6.346;2023-04-20T02:14:05;93167.91;;;23.70;28.57
65359;BME280;52491;45.900;6.346;2023-04-20T02:16:31;93160.97;;;23.69;28.55
65359;BME280;52491;45.900;6.346;2023-04-20T02:18:57;93160.97;;;23.69;28.53
65359;BME280;52491;45.900;6.346;2023-04-20T02:21:22;93163.66;;;23.69;28.49
65359;BME280;52491;45.900;6.346;2023-04-20T02:23:48;93160.97;;;23.69;28.54
65359;BME280;52491;45.900;6.346;2023-04-20T02:26:13;93155.66;;;23.69;28.33
65359;BME280;52491;45.900;6.346;2023-04-20T02:28:41;93152.22;;;23.68;28.39
65359;BME280;52491;45.900;6.346;2023-04-20T02:31:06;93154.09;;;23.68;28.71
65359;BME280;52491;45.900;6.346;2023-04-20T02:33:32;93153.00;;;23.69;28.59
65359;BME280;52491;45.900;6.346;2023-04-20T02:35:57;93140.78;;;23.68;28.67
65359;BME280;52491;45.900;6.346;2023-04-20T02:38:23;93142.34;;;23.69;28.47
65359;BME280;52491;45.900;6.346;2023-04-20T02:40:48;93142.66;;;23.67;28.56
65359;BME280;52491;45.900;6.346;2023-04-20T02:43:14;93145.03;;;23.69;28.41
65359;BME280;52491;45.900;6.346;2023-04-20T02:45:40;93135.47;;;23.68;28.53
65359;BME280;52491;45.900;6.346;2023-04-20T02:48:05;93138.91;;;23.68;28.26
65359;BME280;52491;45.900;6.346;2023-04-20T02:50:31;93146.09;;;23.68;28.26
65359;BME280;52491;45.900;6.346;2023-04-20T02:52:56;93140.78;;;23.68;28.48
65359;BME280;52491;45.900;6.346;2023-04-20T02:55:22;93138.13;;;23.68;28.43
65359;BME280;52491;45.900;6.346;2023-04-20T02:57:47;93136.81;;;23.60;28.49
65359;BME280;52491;45.900;6.346;2023-04-20T03:00:13;93144.00;;;23.60;28.57
65359;BME280;52491;45.900;6.346;2023-04-20T03:02:39;93138.69;;;23.60;28.60
65359;BME280;52491;45.900;6.346;2023-04-20T03:05:05;93138.69;;;23.60;28.58
65359;BME280;52491;45.900;6.346;2023-04-20T03:07:31;93131.00;;;23.58;28.35
65359;BME280;52491;45.900;6.346;2023-04-20T03:09:57;93135.25;;;23.59;28.61
65359;BME280;52491;45.900;6.346;2023-04-20T03:12:23;93134.47;;;23.59;28.61
65359;BME280;52491;45.900;6.346;2023-04-20T03:14:48;93129.94;;;23.59;28.75
65359;BME280;52491;45.900;6.346;2023-04-20T03:17:14;93127.25;;;23.59;28.49
65359;BME280;52491;45.900;6.346;2023-04-20T03:19:39;93129.13;;;23.59;28.42
65359;BME280;52491;45.900;6.346;2023-04-20T03:22:05;93123.81;;;23.59;28.64
65359;BME280;52491;45.900;6.346;2023-04-20T03:24:31;93121.94;;;23.59;28.40
65359;BME280;52491;45.900;6.346;2023-04-20T03:26:57;93120.06;;;23.60;28.66
65359;BME280;52491;45.900;6.346;2023-04-20T03:29:22;93116.63;;;23.59;28.53
65359;BME280;52491;45.900;6.346;2023-04-20T03:31:48;93111.28;;;23.59;28.35
65359;BME280;52491;45.900;6.346;2023-04-20T03:34:13;93110.50;;;23.59;28.50
65359;BME280;52491;45.900;6.346;2023-04-20T03:36:39;93112.88;;;23.60;28.49
65359;BME280;52491;45.900;6.346;2023-04-20T03:39:05;93109.44;;;23.60;28.32
65359;BME280;52491;45.900;6.346;2023-04-20T03:41:31;93109.44;;;23.60;28.30
65359;BME280;52491;45.900;6.346;2023-04-20T03:43:56;93112.09;;;23.60;28.61
65359;BME280;52491;45.900;6.346;2023-04-20T03:46:22;93107.84;;;23.59;28.55
65359;BME280;52491;45.900;6.346;2023-04-20T03:48:48;93105.97;;;23.59;28.34
65359;BME280;52491;45.900;6.346;2023-04-20T03:51:13;93104.09;;;23.60;28.46
65359;BME280;52491;45.900;6.346;2023-04-20T03:53:39;93096.13;;;23.60;28.34
65359;BME280;52491;45.900;6.346;2023-04-20T03:56:05;93098.78;;;23.60;28.58
65359;BME280;52491;45.900;6.346;2023-04-20T03:58:30;93099.56;;;23.60;28.58
65359;BME280;52491;45.900;6.346;2023-04-20T04:01:06;93099.56;;;23.60;28.40
65359;BME280;52491;45.900;6.346;2023-04-20T04:03:33;93091.88;;;23.59;28.25
65359;BME280;52491;45.900;6.346;2023-04-20T04:05:59;93086.56;;;23.59;28.29
65359;BME280;52491;45.900;6.346;2023-04-20T04:08:25;93082.81;;;23.60;28.71
65359;BME280;52491;45.900;6.346;2023-04-20T04:10:51;93083.91;;;23.59;28.32
65359;BME280;52491;45.900;6.346;2023-04-20T04:13:16;93081.75;;;23.61;28.57
65359;BME280;52491;45.900;6.346;2023-04-20T04:15:42;93074.03;;;23.59;28.67
65359;BME280;52491;45.900;6.346;2023-04-20T04:18:07;93079.06;;;23.61;28.74
65359;BME280;52491;45.900;6.346;2023-04-20T04:20:33;93084.41;;;23.61;28.34
65359;BME280;52491;45.900;6.346;2023-04-20T04:22:59;93083.59;;;23.60;28.47
65359;BME280;52491;45.900;6.346;2023-04-20T04:25:25;93088.94;;;23.60;28.61
65359;BME280;52491;45.900;6.346;2023-04-20T04:27:52;93096.91;;;23.60;28.67
65359;BME280;52491;45.900;6.346;2023-04-20T04:30:19;93094.25;;;23.60;28.72
65359;BME280;52491;45.900;6.346;2023-04-20T04:32:45;93100.38;;;23.61;28.47
65359;BME280;52491;45.900;6.346;2023-04-20T04:35:12;93091.31;;;23.62;28.69
65359;BME280;52491;45.900;6.346;2023-04-20T04:37:38;93094.78;;;23.62;28.46
65359;BME280;52491;45.900;6.346;2023-04-20T04:40:04;93087.59;;;23.63;28.83
65359;BME280;52491;45.900;6.346;2023-04-20T04:42:32;93092.91;;;23.63;28.79
65359;BME280;52491;45.900;6.346;2023-04-20T04:44:59;93097.44;;;23.62;28.44
65359;BME280;52491;45.900;6.346;2023-04-20T04:47:27;93086.78;;;23.62;28.73
65359;BME280;52491;45.900;6.346;2023-04-20T04:49:54;93095.56;;;23.63;28.49
65359;BME280;52491;45.900;6.346;2023-04-20T04:52:19;93098.22;;;23.63;28.72
65359;BME280;52491;45.900;6.346;2023-04-20T04:54:45;93099.84;;;23.64;28.74
65359;BME280;52491;45.900;6.346;2023-04-20T04:57:11;93091.84;;;23.64;28.79
65359;BME280;52491;45.900;6.346;2023-04-20T04:59:37;93102.50;;;23.64;28.78
65359;BME280;52491;45.900;6.346;2023-04-20T05:02:02;93099.84;;;23.64;28.74
65359;BME280;52491;45.900;6.346;2023-04-20T05:04:28;93097.97;;;23.64;28.73
65359;BME280;52491;45.900;6.346;2023-04-20T05:06:54;93095.31;;;23.64;28.74
65359;BME280;52491;45.900;6.346;2023-04-20T05:09:19;93089.97;;;23.64;28.80
65359;BME280;52491;45.900;6.346;2023-04-20T05:11:45;93092.34;;;23.66;28.81
65359;BME280;52491;45.900;6.346;2023-04-20T05:14:10;93095.31;;;23.64;28.61
65359;BME280;52491;45.900;6.346;2023-04-20T05:16:36;93096.09;;;23.65;28.78
65359;BME280;52491;45.900;6.346;2023-04-20T05:19:02;93099.53;;;23.65;28.77
65359;BME280;52491;45.900;6.346;2023-04-20T05:21:28;93105.66;;;23.66;28.78
65359;BME280;52491;45.900;6.346;2023-04-20T05:23:53;93104.88;;;23.65;28.76
65359;BME280;52491;45.900;6.346;2023-04-20T05:26:19;93100.34;;;23.66;28.79
65359;BME280;52491;45.900;6.346;2023-04-20T05:28:44;93095.81;;;23.66;28.82
65359;BME280;52491;45.900;6.346;2023-04-20T05:31:10;93103.00;;;23.66;28.84
65359;BME280;52491;45.900;6.346;2023-04-20T05:33:36;93097.69;;;23.66;28.88
65359;BME280;52491;45.900;6.346;2023-04-20T05:36:01;93095.53;;;23.68;28.81
65359;BME280;52491;45.900;6.346;2023-04-20T05:38:27;93090.22;;;23.68;28.63
65359;BME280;52491;45.900;6.346;2023-04-20T05:40:52;93084.09;;;23.67;28.83
65359;BME280;52491;45.900;6.346;2023-04-20T05:43:18;93084.09;;;23.67;28.78
65359;BME280;52491;45.900;6.346;2023-04-20T05:45:47;93095.53;;;23.68;28.70
65359;BME280;52491;45.900;6.346;2023-04-20T05:48:13;93082.50;;;23.66;28.95
65359;BME280;52491;45.900;6.346;2023-04-20T05:50:38;93085.69;;;23.68;28.70
65359;BME280;52491;45.900;6.346;2023-04-20T05:53:04;93083.03;;;23.68;28.63
65359;BME280;52491;45.900;6.346;2023-04-20T05:55:30;93083.81;;;23.69;28.88
65359;BME280;52491;45.900;6.346;2023-04-20T05:57:55;93079.56;;;23.68;28.69
65359;BME280;52491;45.900;6.346;2023-04-20T06:00:21;93083.81;;;23.69;28.81
65359;BME280;52491;45.900;6.346;2023-04-20T06:02:47;93080.09;;;23.70;28.83
65359;BME280;52491;45.900;6.346;2023-04-20T06:05:13;93081.97;;;23.70;28.97
65359;BME280;52491;45.900;6.346;2023-04-20T06:07:39;93083.56;;;23.71;28.77
65359;BME280;52491;45.900;6.346;2023-04-20T06:10:05;93084.63;;;23.70;28.74
65359;BME280;52491;45.900;6.346;2023-04-20T06:12:31;93090.47;;;23.72;28.88
65359;BME280;52491;45.900;6.346;2023-04-20T06:14:57;93082.75;;;23.70;28.74
65359;BME280;52491;45.900;6.346;2023-04-20T06:17:23;93088.09;;;23.70;28.76
65359;BME280;52491;45.900;6.346;2023-04-20T06:19:49;93083.56;;;23.71;28.77
65359;BME280;52491;45.900;6.346;2023-04-20T06:22:15;93078.25;;;23.71;28.77
65359;BME280;52491;45.900;6.346;2023-04-20T06:24:41;93077.97;;;23.72;28.65
65359;BME280;52491;45.900;6.346;2023-04-20T06:27:08;93077.16;;;23.72;28.72
65359;BME280;52491;45.900;6.346;2023-04-20T06:29:33;93079.56;;;23.73;28.87
65359;BME280;52491;45.900;6.346;2023-04-20T06:31:59;93074.25;;;23.73;28.70
65359;BME280;52491;45.900;6.346;2023-04-20T06:34:24;93075.31;;;23.72;28.88
65359;BME280;52491;45.900;6.346;2023-04-20T06:36:50;93069.97;;;23.72;29.11
65359;BME280;52491;45.900;6.346;2023-04-20T06:39:16;93073.16;;;23.74;28.68
65359;BME280;52491;45.900;6.346;2023-04-20T06:41:42;93062.81;;;23.73;28.87
65359;BME280;52491;45.900;6.346;2023-04-20T06:44:08;93065.97;;;23.75;28.64
65359;BME280;52491;45.900;6.346;2023-04-20T06:46:34;93067.06;;;23.74;28.88
65359;BME280;52491;45.900;6.346;2023-04-20T06:49:00;93070.81;;;23.73;28.64
65359;BME280;52491;45.900;6.346;2023-04-20T06:51:26;93068.94;;;23.73;28.80
65359;BME280;52491;45.900;6.346;2023-04-20T06:53:54;93067.06;;;23.74;28.73
65359;BME280;52491;45.900;6.346;2023-04-20T06:56:19;93064.41;;;23.74;28.85
65359;BME280;52491;45.900;6.346;2023-04-20T06:58:45;93065.47;;;23.73;28.64
65359;BME280;52491;45.900;6.346;2023-04-20T07:01:11;93058.28;;;23.73;28.58
65359;BME280;52491;45.900;6.346;2023-04-20T07:03:37;93064.41;;;23.74;28.85
65359;BME280;52491;45.900;6.346;2023-04-20T07:06:03;93059.06;;;23.74;28.74
65359;BME280;52491;45.900;6.346;2023-04-20T07:08:28;93060.66;;;23.75;28.85
65359;BME280;52491;45.900;6.346;2023-04-20T07:10:54;93056.41;;;23.74;28.79
65359;BME280;52491;45.900;6.346;2023-04-20T07:13:19;93057.50;;;23.73;28.67
65359;BME280;52491;45.900;6.346;2023-04-20T07:15:45;93062.00;;;23.72;28.68
65359;BME280;52491;45.900;6.346;2023-04-20T07:18:11;93060.94;;;23.73;28.80
65359;BME280;52491;45.900;6.346;2023-04-20T07:20:36;93053.22;;;23.72;28.68
65359;BME280;52491;45.900;6.346;2023-04-20T07:23:02;93053.75;;;23.74;28.90
65359;BME280;52491;45.900;6.346;2023-04-20T07:25:28;93050.00;;;23.75;28.86
65359;BME280;52491;45.900;6.346;2023-04-20T07:27:55;93052.66;;;23.75;28.82
65359;BME280;52491;45.900;6.346;2023-04-20T07:30:21;93052.16;;;23.73;28.87
65359;BME280;52491;45.900;6.346;2023-04-20T07:32:47;93048.41;;;23.74;28.79
65359;BME280;52491;45.900;6.346;2023-04-20T07:35:14;93056.41;;;23.74;28.77
65359;BME280;52491;45.900;6.346;2023-04-20T07:37:40;93062.00;;;23.72;28.65
65359;BME280;52491;45.900;6.346;2023-04-20T07:40:06;93056.66;;;23.72;28.77
65359;BME280;52491;45.900;6.346;2023-04-20T07:42:33;93067.31;;;23.72;28.70
65359;BME280;52491;45.900;6.346;2023-04-20T07:44:59;93074.50;;;23.72;28.86
65359;BME280;52491;45.900;6.346;2023-04-20T07:47:24;93077.97;;;23.72;28.74
65359;BME280;52491;45.900;6.346;2023-04-20T07:49:50;93082.75;;;23.70;28.80
65359;BME280;52491;45.900;6.346;2023-04-20T07:52:15;93088.09;;;23.70;28.89
65359;BME280;52491;45.900;6.346;2023-04-20T07:54:46;93089.69;;;23.71;28.77
65359;BME280;52491;45.900;6.346;2023-04-20T07:57:11;93099.78;;;23.69;28.87
65359;BME280;52491;45.900;6.346;2023-04-20T07:59:37;93096.06;;;23.70;28.74
65359;BME280;52491;45.900;6.346;2023-04-20T08:02:04;93091.56;;;23.71;28.87
65359;BME280;52491;45.900;6.346;2023-04-20T08:04:30;93098.47;;;23.72;28.92
65359;BME280;52491;45.900;6.346;2023-04-20T08:06:56;93101.13;;;23.72;28.93
65359;BME280;52491;45.900;6.346;2023-04-20T08:09:21;93100.59;;;23.70;28.74
65359;BME280;52491;45.900;6.346;2023-04-20T08:11:47;93098.72;;;23.70;28.78
65359;BME280;52491;45.900;6.346;2023-04-20T08:14:14;93096.59;;;23.72;29.03
65359;BME280;52491;45.900;6.346;2023-04-20T08:16:40;93082.75;;;23.70;28.89
65359;BME280;52491;45.900;6.346;2023-04-20T08:19:06;93091.56;;;23.71;28.85
65359;BME280;52491;45.900;6.346;2023-04-20T08:21:35;93098.72;;;23.70;28.83
65359;BME280;52491;45.900;6.346;2023-04-20T08:24:02;93098.72;;;23.70;28.96
65359;BME280;52491;45.900;6.346;2023-04-20T08:26:28;93109.38;;;23.75;28.86
65359;BME280;52491;45.900;6.346;2023-04-20T08:28:54;93104.28;;;23.79;29.19
65359;BME280;52491;45.900;6.346;2023-04-20T08:31:19;93108.53;;;23.80;29.23
65359;BME280;52491;45.900;6.346;2023-04-20T08:33:45;93109.84;;;23.82;29.27
65359;BME280;52491;45.900;6.346;2023-04-20T08:36:11;93106.91;;;23.84;29.26
65359;BME280;52491;45.900;6.346;2023-04-20T08:38:36;93106.66;;;23.80;29.51
65359;BME280;52491;45.900;6.346;2023-04-20T08:41:02;93099.75;;;23.79;29.51
65359;BME280;52491;45.900;6.346;2023-04-20T08:43:28;93099.75;;;23.79;29.68
65359;BME280;52491;45.900;6.346;2023-04-20T08:45:57;93106.66;;;23.80;29.39
65359;BME280;52491;45.900;6.346;2023-04-20T08:48:24;93104.81;;;23.81;29.33
65359;BME280;52491;45.900;6.346;2023-04-20T08:50:51;93101.06;;;23.82;29.83
65359;BME280;52491;45.900;6.346;2023-04-20T08:53:16;93100.28;;;23.81;29.66
65359;BME280;52491;45.900;6.346;2023-04-20T08:55:42;93102.16;;;23.81;29.87
65359;BME280;52491;45.900;6.346;2023-04-20T08:58:08;93097.59;;;23.81;29.63
65359;BME280;52491;45.900;6.346;2023-04-20T09:00:33;93105.59;;;23.81;29.69
65359;BME280;52491;45.900;6.346;2023-04-20T09:02:59;93104.81;;;23.81;29.84
65359;BME280;52491;45.900;6.346;2023-04-20T09:05:29;93109.03;;;23.82;29.80
65359;BME280;52491;45.900;6.346;2023-04-20T09:07:59;93108.25;;;23.81;29.76
65359;BME280;52491;45.900;6.346;2023-04-20T09:10:38;93116.25;;;23.81;29.87
65359;BME280;52491;45.900;6.346;2023-04-20T09:13:05;93102.94;;;23.81;29.95
65359;BME280;52491;45.900;6.346;2023-04-20T09:15:31;93106.66;;;23.80;29.67
65359;BME280;52491;45.900;6.346;2023-04-20T09:17:57;93111.19;;;23.80;29.85
65359;BME280;52491;45.900;6.346;2023-04-20T09:20:30;93109.31;;;23.80;29.98
65359;BME280;52491;45.900;6.346;2023-04-20T09:22:56;93105.84;;;23.80;29.70
65359;BME280;52491;45.900;6.346;2023-04-20T09:25:22;93104.00;;;23.80;30.08
65359;BME280;52491;45.900;6.346;2023-04-20T09:28:09;93096.00;;;23.80;29.84
65359;BME280;52491;45.900;6.346;2023-04-20T09:33:03;93099.47;;;23.81;29.78
65359;BME280;52491;45.900;6.346;2023-04-20T09:35:29;93098.41;;;23.82;29.81
65359;BME280;52491;45.900;6.346;2023-04-20T09:37:55;93098.09;;;23.83;29.86
65359;BME280;52491;45.900;6.346;2023-04-20T09:40:23;93094.66;;;23.83;29.84
65359;BME280;52491;45.900;6.346;2023-04-20T09:42:50;93090.41;;;23.82;29.75
65359;BME280;52491;45.900;6.346;2023-04-20T09:45:17;93091.19;;;23.82;30.01
65359;BME280;52491;45.900;6.346;2023-04-20T09:47:43;93092.78;;;23.83;29.77
65359;BME280;52491;45.900;6.346;2023-04-20T09:50:11;93086.66;;;23.83;29.71
65359;BME280;52491;45.900;6.346;2023-04-20T09:52:38;93090.13;;;23.83;29.83
65359;BME280;52491;45.900;6.346;2023-04-20T09:55:05;93094.66;;;23.83;30.05
65359;BME280;52491;45.900;6.346;2023-04-20T09:57:34;93090.41;;;23.82;29.81
65359;BME280;52491;45.900;6.346;2023-04-20T10:00:01;93090.13;;;23.83;30.00
65359;BME280;52491;45.900;6.346;2023-04-20T10:02:30;93083.22;;;23.82;29.91
65359;BME280;52491;45.900;6.346;2023-04-20T10:04:57;93083.22;;;23.82;30.14
65359;BME280;52491;45.900;6.346;2023-04-20T10:07:30;93082.13;;;23.83;29.78
65359;BME280;52491;45.900;6.346;2023-04-20T10:10:03;93068.34;;;23.81;30.08
65359;BME280;52491;45.900;6.346;2023-04-20T10:12:29;93064.88;;;23.81;30.07
65359;BME280;52491;45.900;6.346;2023-04-20T10:14:55;93066.47;;;23.82;29.87
65359;BME280;52491;45.900;6.346;2023-04-20T10:17:32;93059.56;;;23.81;29.83
65359;BME280;52491;45.900;6.346;2023-04-20T10:19:58;93064.59;;;23.82;30.19
65359;BME280;52491;45.900;6.346;2023-04-20T10:22:31;93054.25;;;23.81;30.00
65359;BME280;52491;45.900;6.346;2023-04-20T10:25:12;93056.06;;;23.80;29.96
65359;BME280;52491;45.900;6.346;2023-04-20T10:27:38;93046.25;;;23.81;29.91
65359;BME280;52491;45.900;6.346;2023-04-20T10:30:09;93047.84;;;23.82;29.75
65359;BME280;52491;45.900;6.346;2023-04-20T10:32:35;93043.59;;;23.81;29.90
65359;BME280;52491;45.900;6.346;2023-04-20T10:35:09;93041.72;;;23.81;30.00
65359;BME280;52491;45.900;6.346;2023-04-20T10:37:46;93039.84;;;23.82;29.94
65359;BME280;52491;45.900;6.346;2023-04-20T10:40:12;93025.75;;;23.81;30.08
65359;BME280;52491;45.900;6.346;2023-04-20T10:42:44;93036.41;;;23.81;29.86
65359;BME280;52491;45.900;6.346;2023-04-20T10:45:11;93040.09;;;23.80;29.95
65359;BME280;52491;45.900;6.346;2023-04-20T10:47:37;93057.69;;;23.81;30.08
65359;BME280;52491;45.900;6.346;2023-04-20T10:50:12;93069.13;;;23.82;29.83
65359;BME280;52491;45.900;6.346;2023-04-20T10:52:40;93088.03;;;23.80;30.10
65359;BME280;52491;45.900;6.346;2023-04-20T10:55:17;93098.66;;;23.80;29.97
65359;BME280;52491;45.900;6.346;2023-04-20T10:57:46;93104.00;;;23.80;29.90
65359;BME280;52491;45.900;6.346;2023-04-20T11:00:19;93117.28;;;23.80;30.18
65359;BME280;52491;45.900;6.346;2023-04-20T11:02:47;93104.81;;;23.81;30.03
65359;BME280;52491;45.900;6.346;2023-04-20T11:05:13;93108.81;;;23.78;29.96
65359;BME280;52491;45.900;6.346;2023-04-20T11:10:22;93100.00;;;23.78;30.04
65359;BME280;52491;45.900;6.346;2023-04-20T11:12:48;93110.66;;;23.78;29.86
65359;BME280;52491;45.900;6.346;2023-04-20T11:15:14;93114.13;;;23.78;29.95
65359;BME280;52491;45.900;6.346;2023-04-20T11:17:40;93113.06;;;23.79;30.08
65359;BME280;52491;45.900;6.346;2023-04-20T11:20:08;93115.19;;;23.77;30.02
65359;BME280;52491;45.900;6.346;2023-04-20T11:22:36;93120.50;;;23.77;30.04
65359;BME280;52491;45.900;6.346;2023-04-20T11:25:08;93121.31;;;23.78;29.97
65359;BME280;52491;45.900;6.346;2023-04-20T11:27:34;93125.84;;;23.77;30.13
65359;BME280;52491;45.900;6.346;2023-04-20T11:30:00;93132.25;;;23.76;30.16
65359;BME280;52491;45.900;6.346;2023-04-20T11:32:31;93136.47;;;23.77;30.18
65359;BME280;52491;45.900;6.346;2023-04-20T11:35:07;93138.34;;;23.77;30.33
65359;BME280;52491;45.900;6.346;2023-04-20T11:37:47;93141.00;;;23.77;30.55
65359;BME280;52491;45.900;6.346;2023-04-20T11:40:15;93136.81;;;23.71;30.66
65359;BME280;52491;45.900;6.346;2023-04-20T11:42:41;93143.16;;;23.75;30.71
65359;BME280;52491;45.900;6.346;2023-04-20T11:45:07;93141.31;;;23.75;30.98
65359;BME280;52491;45.900;6.346;2023-04-20T11:47:33;93138.66;;;23.75;31.04
65359;BME280;52491;45.900;6.346;2023-04-20T11:49:59;93134.38;;;23.74;31.00
65359;BME280;52491;45.900;6.346;2023-04-20T11:52:25;93136.25;;;23.74;31.06
65359;BME280;52491;45.900;6.346;2023-04-20T11:54:51;93137.81;;;23.75;31.04
65359;BME280;52491;45.900;6.346;2023-04-20T11:57:17;93137.03;;;23.74;31.33
65359;BME280;52491;45.900;6.346;2023-04-20T11:59:42;93136.25;;;23.74;31.05
65359;BME280;52491;45.900;6.346;2023-04-20T12:02:12;93140.78;;;23.73;31.35
65359;BME280;52491;45.900;6.346;2023-04-20T12:04:38;93148.47;;;23.75;31.24
65359;BME280;52491;45.900;6.346;2023-04-20T12:07:03;93150.34;;;23.74;31.46
65359;BME280;52491;45.900;6.346;2023-04-20T12:09:29;93140.00;;;23.73;31.47
65359;BME280;52491;45.900;6.346;2023-04-20T12:11:55;93143.16;;;23.75;31.49
65359;BME280;52491;45.900;6.346;2023-04-20T12:14:22;93154.63;;;23.75;31.28
65359;BME280;52491;45.900;6.346;2023-04-20T12:16:48;93150.34;;;23.74;31.58
65359;BME280;52491;45.900;6.346;2023-04-20T12:19:13;93153.00;;;23.74;31.72
65359;BME280;52491;45.900;6.346;2023-04-20T12:21:41;93163.66;;;23.74;31.75
65359;BME280;52491;45.900;6.346;2023-04-20T12:24:07;93170.59;;;23.75;31.54
65359;BME280;52491;45.900;6.346;2023-04-20T12:26:33;93175.91;;;23.75;31.58
65359;BME280;52491;45.900;6.346;2023-04-20T12:29:00;93185.72;;;23.75;31.89
65359;BME280;52491;45.900;6.346;2023-04-20T12:31:26;93191.88;;;23.75;31.75
65359;BME280;52491;45.900;6.346;2023-04-20T12:33:52;93200.66;;;23.76;31.83
65359;BME280;52491;45.900;6.346;2023-04-20T12:36:17;93191.59;;;23.77;31.88
65359;BME280;52491;45.900;6.346;2023-04-20T12:38:43;93201.44;;;23.76;31.82
65359;BME280;52491;45.900;6.346;2023-04-20T12:41:12;93204.63;;;23.78;31.79
65359;BME280;52491;45.900;6.346;2023-04-20T12:43:39;93201.44;;;23.76;31.80
65359;BME280;52491;45.900;6.346;2023-04-20T12:46:06;93209.13;;;23.78;31.94
65359;BME280;52491;45.900;6.346;2023-04-20T12:48:33;93211.28;;;23.76;31.90
65359;BME280;52491;45.900;6.346;2023-04-20T12:51:00;93224.59;;;23.76;31.84
65359;BME280;52491;45.900;6.346;2023-04-20T12:53:26;93225.41;;;23.76;32.11
65359;BME280;52491;45.900;6.346;2023-04-20T12:55:52;93220.88;;;23.77;31.97
65359;BME280;52491;45.900;6.346;2023-04-20T12:58:17;93222.72;;;23.76;32.05
65359;BME280;52491;45.900;6.346;2023-04-20T13:00:43;93237.91;;;23.76;31.99